Time;durP1;ratioP1;P1;durP2;ratioP2;P2;SDS_P1;SDS_P2;PMS_P1;PMS_P2;Temp;Humidity;BMP_temperature;BMP_pressure;BME280_temperature;BME280_humidity;BME280_pressure;Samples;Min_cycle;Max_cycle;Signal;HPM_P1;HPM_P2
2021/07/25 00:01:42;;;;;;;9.07;8.18;;;22.10;99.90;;;;;;5113152;28;20537;-78
2021/07/25 00:04:09;;;;;;;10.10;9.10;;;22.20;99.90;;;;;;5114324;28;20197;-77
2021/07/25 00:06:36;;;;;;;11.90;8.75;;;22.10;99.90;;;;;;5115626;27;20628;-77
2021/07/25 00:09:02;;;;;;;10.15;9.15;;;22.20;99.90;;;;;;5131920;27;20208;-78
2021/07/25 00:11:30;;;;;;;9.60;8.60;;;22.10;99.90;;;;;;5115079;27;20683;-78
2021/07/25 00:14:02;;;;;;;10.50;9.20;;;22.10;99.90;;;;;;5121642;27;20253;-78
2021/07/25 00:16:29;;;;;;;9.88;8.90;;;22.10;99.90;;;;;;5129967;27;20277;-78
2021/07/25 00:18:56;;;;;;;10.10;9.25;;;22.10;99.90;;;;;;5114622;27;20190;-77
2021/07/25 00:21:23;;;;;;;10.18;9.18;;;22.10;99.90;;;;;;5133136;27;20278;-78
2021/07/25 00:23:51;;;;;;;9.20;8.30;;;22.10;99.90;;;;;;5134512;27;20203;-78
2021/07/25 00:26:24;;;;;;;9.43;8.52;;;22.10;99.90;;;;;;5129026;27;20675;-78
2021/07/25 00:28:51;;;;;;;10.32;9.32;;;22.00;99.90;;;;;;5113924;28;20592;-78
2021/07/25 00:31:19;;;;;;;12.52;9.77;;;22.00;99.90;;;;;;5126922;27;20189;-78
2021/07/25 00:33:48;;;;;;;9.25;8.48;;;22.00;99.90;;;;;;5123979;27;20192;-78
2021/07/25 00:36:15;;;;;;;10.23;9.30;;;22.00;99.90;;;;;;5134499;27;20212;-78
2021/07/25 00:38:41;;;;;;;10.43;9.43;;;22.00;99.90;;;;;;5121957;27;20201;-77
2021/07/25 00:41:12;;;;;;;10.57;9.45;;;21.90;99.90;;;;;;5114040;28;20676;-77
2021/07/25 00:43:39;;;;;;;10.35;9.35;;;21.90;99.90;;;;;;5118357;27;20189;-77
2021/07/25 00:46:06;;;;;;;10.38;9.43;;;21.90;99.90;;;;;;5135561;27;20228;-78
2021/07/25 00:48:36;;;;;;;10.30;9.30;;;21.90;99.90;;;;;;5124742;27;20197;-78
2021/07/25 00:51:04;;;;;;;11.23;9.52;;;21.80;99.90;;;;;;5135419;27;20535;-78
2021/07/25 00:53:33;;;;;;;8.80;8.00;;;21.90;99.90;;;;;;5134050;27;20208;-77
2021/07/25 00:56:00;;;;;;;9.48;8.60;;;21.80;99.90;;;;;;5132834;27;20244;-77
2021/07/25 00:58:27;;;;;;;10.27;9.30;;;21.80;99.90;;;;;;5115046;27;20198;-77
2021/07/25 01:00:54;;;;;;;8.57;7.78;;;21.80;99.90;;;;;;5124817;27;20217;-77
2021/07/25 01:03:30;;;;;;;10.23;9.20;;;21.80;99.90;;;;;;5135252;27;20261;-76
2021/07/25 01:06:16;;;;;;;10.85;9.85;;;21.80;99.90;;;;;;5117455;27;20189;-77
2021/07/25 01:08:49;;;;;;;9.18;8.18;;;21.80;99.90;;;;;;5127656;27;20276;-75
2021/07/25 01:11:16;;;;;;;10.77;9.75;;;21.70;99.90;;;;;;5133584;27;20222;-76
2021/07/25 01:13:46;;;;;;;10.10;9.23;;;21.70;99.90;;;;;;5134783;27;20588;-78
2021/07/25 01:16:13;;;;;;;10.40;9.25;;;21.70;99.90;;;;;;5115456;27;20197;-77
2021/07/25 01:18:47;;;;;;;9.90;8.98;;;21.70;99.90;;;;;;5131089;27;20200;-79
2021/07/25 01:21:16;;;;;;;9.90;8.95;;;21.60;99.90;;;;;;5134655;27;20240;-77
2021/07/25 01:23:43;;;;;;;10.55;9.65;;;21.60;99.90;;;;;;5131119;27;20685;-79
2021/07/25 01:26:12;;;;;;;10.02;9.13;;;21.70;99.90;;;;;;5122400;27;20193;-78
2021/07/25 01:28:43;;;;;;;9.00;8.10;;;21.60;99.90;;;;;;5117186;27;20193;-77
2021/07/25 01:31:15;;;;;;;10.00;9.00;;;21.60;99.90;;;;;;5115515;27;20186;-77
2021/07/25 01:33:43;;;;;;;9.60;8.68;;;21.60;99.90;;;;;;5116718;27;20182;-79
2021/07/25 01:36:13;;;;;;;8.77;7.97;;;21.60;99.90;;;;;;5121822;27;20200;-79
2021/07/25 01:38:41;;;;;;;9.73;8.73;;;21.60;99.90;;;;;;5120872;27;20291;-78
2021/07/25 01:41:10;;;;;;;9.68;8.70;;;21.60;99.90;;;;;;5130869;27;20664;-78
2021/07/25 01:43:38;;;;;;;10.23;9.23;;;21.60;99.90;;;;;;5113973;28;20197;-79
2021/07/25 01:46:05;;;;;;;9.15;8.35;;;21.60;99.90;;;;;;5113211;28;20201;-77
2021/07/25 01:48:32;;;;;;;8.30;7.50;;;21.60;99.90;;;;;;5114184;28;20620;-78
2021/07/25 01:50:59;;;;;;;9.60;8.60;;;21.60;99.90;;;;;;5114095;28;20205;-78
2021/07/25 01:53:26;;;;;;;8.98;8.18;;;21.50;99.90;;;;;;5126504;28;20189;-77
2021/07/25 01:55:54;;;;;;;9.50;8.60;;;21.60;99.90;;;;;;5133719;28;20189;-78
2021/07/25 01:58:20;;;;;;;10.60;9.00;;;21.50;99.90;;;;;;5119046;27;20218;-78
2021/07/25 02:00:47;;;;;;;9.68;8.77;;;21.50;99.90;;;;;;5113921;28;20594;-78
2021/07/25 02:03:19;;;;;;;10.43;9.43;;;21.50;99.90;;;;;;5119136;28;20208;-78
2021/07/25 02:05:46;;;;;;;10.93;9.20;;;21.50;99.90;;;;;;5132411;27;20181;-78
2021/07/25 02:08:12;;;;;;;11.10;9.13;;;21.50;99.90;;;;;;5119456;27;20205;-78
2021/07/25 02:10:43;;;;;;;10.88;9.88;;;21.40;99.90;;;;;;5112620;28;20208;-77
2021/07/25 02:13:11;;;;;;;10.50;8.38;;;21.40;99.90;;;;;;5122820;28;20253;-78
2021/07/25 02:15:38;;;;;;;9.32;8.52;;;21.40;99.90;;;;;;5115339;27;20201;-77
2021/07/25 02:18:05;;;;;;;10.50;9.60;;;21.40;99.90;;;;;;5112826;28;20869;-78
2021/07/25 02:20:31;;;;;;;9.95;9.05;;;21.40;99.90;;;;;;5120233;28;20267;-78
2021/07/25 02:22:58;;;;;;;10.95;9.32;;;21.30;99.90;;;;;;5124983;28;20238;-79
2021/07/25 02:25:25;;;;;;;9.88;8.98;;;21.40;99.90;;;;;;5132784;27;20204;-79
2021/07/25 02:27:51;;;;;;;9.40;8.50;;;21.30;99.90;;;;;;5132618;27;20276;-79
2021/07/25 02:30:20;;;;;;;9.27;8.38;;;21.30;99.90;;;;;;5120641;27;20544;-79
2021/07/25 02:32:46;;;;;;;10.30;9.30;;;21.30;99.90;;;;;;5114278;28;20197;-79
2021/07/25 02:35:13;;;;;;;9.95;9.05;;;21.30;99.90;;;;;;5113093;28;20561;-79
2021/07/25 02:37:40;;;;;;;7.93;7.13;;;21.30;99.90;;;;;;5124605;28;20196;-78
2021/07/25 02:40:07;;;;;;;9.60;8.65;;;21.30;99.90;;;;;;5125396;27;20201;-78
2021/07/25 02:42:34;;;;;;;8.95;8.05;;;21.20;99.90;;;;;;5131830;27;20289;-78
2021/07/25 02:45:01;;;;;;;10.00;9.10;;;21.30;99.90;;;;;;5134330;27;20204;-78
2021/07/25 02:47:29;;;;;;;9.38;8.48;;;21.30;99.90;;;;;;5132729;27;20196;-78
2021/07/25 02:49:55;;;;;;;8.38;7.65;;;21.20;99.90;;;;;;5133605;27;20200;-77
2021/07/25 02:52:22;;;;;;;9.05;8.25;;;21.20;99.90;;;;;;5123234;27;20586;-77
2021/07/25 02:54:48;;;;;;;9.35;8.45;;;21.20;99.90;;;;;;5117888;28;20566;-77
2021/07/25 02:57:15;;;;;;;10.35;9.35;;;21.20;99.90;;;;;;5115258;28;20205;-77
2021/07/25 02:59:42;;;;;;;8.55;7.65;;;21.20;99.90;;;;;;5131141;27;20190;-78
2021/07/25 03:02:10;;;;;;;9.48;8.27;;;21.20;99.90;;;;;;5134683;27;20528;-78
2021/07/25 03:04:41;;;;;;;10.20;9.20;;;21.20;99.90;;;;;;5136376;27;20181;-78
2021/07/25 03:07:08;;;;;;;9.50;8.60;;;21.10;99.90;;;;;;5137252;27;20200;-78
2021/07/25 03:09:35;;;;;;;8.77;7.97;;;21.10;99.90;;;;;;5137135;27;20211;-78
2021/07/25 03:12:01;;;;;;;9.05;8.25;;;21.10;99.90;;;;;;5125042;27;20190;-78
2021/07/25 03:14:28;;;;;;;8.75;7.95;;;21.10;99.90;;;;;;5130349;27;20196;-78
2021/07/25 03:16:54;;;;;;;9.10;8.20;;;21.10;99.90;;;;;;5137338;27;20212;-79
2021/07/25 03:19:21;;;;;;;9.65;8.80;;;21.20;99.90;;;;;;5116856;27;20628;-79
2021/07/25 03:21:49;;;;;;;9.38;8.07;;;21.20;99.90;;;;;;5118218;27;20225;-78
2021/07/25 03:24:16;;;;;;;9.13;8.23;;;21.10;99.90;;;;;;5122314;27;20193;-78
2021/07/25 03:26:42;;;;;;;8.40;7.55;;;21.10;99.90;;;;;;5136962;27;20243;-78
2021/07/25 03:29:09;;;;;;;8.40;7.60;;;21.10;99.90;;;;;;5135199;27;20200;-78
2021/07/25 03:31:36;;;;;;;8.35;7.55;;;21.10;99.90;;;;;;5120517;27;20181;-78
2021/07/25 03:34:02;;;;;;;8.63;7.93;;;21.00;99.90;;;;;;5116215;28;20628;-78
2021/07/25 03:36:29;;;;;;;8.25;7.45;;;21.10;99.90;;;;;;5116242;28;20570;-79
2021/07/25 03:38:57;;;;;;;10.32;8.32;;;21.00;99.90;;;;;;5125933;27;20215;-78
2021/07/25 03:41:24;;;;;;;7.40;6.70;;;21.00;99.90;;;;;;5131332;27;20969;-78
2021/07/25 03:43:50;;;;;;;7.93;7.22;;;21.00;99.90;;;;;;5120777;27;20725;-78
2021/07/25 03:46:18;;;;;;;9.48;8.48;;;20.90;99.90;;;;;;5132048;27;20197;-78
2021/07/25 03:48:44;;;;;;;8.20;7.47;;;21.00;99.90;;;;;;5136418;27;20231;-79
2021/07/25 03:51:11;;;;;;;9.57;8.65;;;21.00;99.90;;;;;;5133919;27;20196;-78
2021/07/25 03:53:38;;;;;;;8.35;7.55;;;21.00;99.90;;;;;;5115939;28;20288;-77
2021/07/25 03:56:07;;;;;;;8.95;8.10;;;20.90;99.90;;;;;;5118039;27;20198;-80
2021/07/25 03:58:34;;;;;;;7.93;7.10;;;20.90;99.90;;;;;;5135251;27;20200;-79
2021/07/25 04:01:01;;;;;;;7.45;6.75;;;20.90;99.90;;;;;;5123386;27;20213;-79
2021/07/25 04:03:28;;;;;;;8.60;7.80;;;20.90;99.90;;;;;;5130055;27;20196;-79
2021/07/25 04:05:54;;;;;;;8.95;7.95;;;20.80;99.90;;;;;;5115879;27;20193;-79
2021/07/25 04:08:21;;;;;;;8.95;7.50;;;20.90;99.90;;;;;;5118369;27;20197;-79
2021/07/25 04:10:48;;;;;;;6.75;6.15;;;20.90;99.90;;;;;;5130479;27;20196;-79
2021/07/25 04:13:16;;;;;;;7.45;6.75;;;20.90;99.90;;;;;;5133886;27;20230;-80
2021/07/25 04:15:44;;;;;;;8.25;7.50;;;20.90;99.90;;;;;;5135028;27;20274;-78
2021/07/25 04:18:11;;;;;;;7.43;6.78;;;20.90;99.90;;;;;;5122969;27;20185;-77
2021/07/25 04:20:38;;;;;;;7.47;6.65;;;20.90;99.90;;;;;;5132274;27;20554;-78
2021/07/25 04:23:05;;;;;;;8.32;7.53;;;20.80;99.90;;;;;;5134697;27;20212;-79
2021/07/25 04:25:33;;;;;;;8.68;7.85;;;20.80;99.90;;;;;;5115979;27;20193;-78
2021/07/25 04:28:01;;;;;;;7.28;6.57;;;20.80;99.90;;;;;;5114209;28;20236;-79
2021/07/25 04:30:32;;;;;;;7.38;6.55;;;20.80;99.90;;;;;;5114163;28;20259;-78
2021/07/25 04:33:00;;;;;;;8.40;7.60;;;20.80;99.90;;;;;;5120754;27;20191;-78
2021/07/25 04:35:27;;;;;;;6.88;6.15;;;20.80;99.90;;;;;;5126268;27;20561;-78
2021/07/25 04:37:55;;;;;;;8.98;8.07;;;20.80;99.90;;;;;;5115468;27;20568;-78
2021/07/25 04:40:24;;;;;;;7.40;6.70;;;20.80;99.90;;;;;;5135398;27;20239;-78
2021/07/25 04:42:52;;;;;;;7.82;7.13;;;20.80;99.90;;;;;;5119370;27;20604;-78
2021/07/25 04:45:25;;;;;;;7.97;6.90;;;20.80;99.90;;;;;;5124329;27;20273;-78
2021/07/25 04:48:02;;;;;;;7.85;7.15;;;20.80;99.90;;;;;;5114869;28;20272;-77
2021/07/25 04:50:35;;;;;;;9.68;8.73;;;20.70;99.90;;;;;;5115047;28;20177;-77
2021/07/25 04:53:03;;;;;;;8.18;7.38;;;20.70;99.90;;;;;;5122577;27;20246;-77
2021/07/25 04:55:35;;;;;;;7.18;6.47;;;20.80;99.90;;;;;;5134166;27;20196;-78
2021/07/25 04:58:05;;;;;;;8.38;7.57;;;20.80;99.90;;;;;;5134897;27;20237;-78
2021/07/25 05:00:32;;;;;;;7.28;6.38;;;20.80;99.90;;;;;;5135238;27;20184;-77
2021/07/25 05:03:03;;;;;;;7.22;6.50;;;20.70;99.90;;;;;;5130063;27;20223;-78
2021/07/25 05:05:31;;;;;;;9.27;8.48;;;20.70;99.90;;;;;;5124183;27;20185;-79
2021/07/25 05:08:00;;;;;;;7.05;6.43;;;20.60;99.90;;;;;;5116488;27;20208;-78
2021/07/25 05:10:28;;;;;;;7.00;6.47;;;20.70;99.90;;;;;;5135219;27;20200;-78
2021/07/25 05:13:00;;;;;;;6.47;5.97;;;20.70;99.90;;;;;;5130514;27;20195;-78
2021/07/25 05:15:31;;;;;;;7.47;6.75;;;20.60;99.90;;;;;;5125073;27;20269;-78
2021/07/25 05:18:04;;;;;;;10.55;9.45;;;20.70;99.90;;;;;;5121193;27;20185;-78
2021/07/25 05:20:39;;;;;;;12.18;11.05;;;20.70;99.90;;;;;;5126871;27;20196;-77
2021/07/25 05:23:17;;;;;;;9.63;8.63;;;20.70;99.90;;;;;;5120802;27;20698;-77
2021/07/25 05:25:49;;;;;;;11.65;10.38;;;20.80;99.90;;;;;;5124051;27;20184;-79
2021/07/25 05:28:17;;;;;;;9.55;8.00;;;20.70;99.90;;;;;;5134705;27;20273;-78
2021/07/25 05:30:48;;;;;;;9.02;8.15;;;20.80;99.90;;;;;;5118864;27;20201;-77
2021/07/25 05:33:16;;;;;;;9.32;7.53;;;20.80;99.90;;;;;;5125586;27;20243;-78
2021/07/25 05:35:43;;;;;;;8.10;7.30;;;20.80;99.90;;;;;;5116255;27;20197;-78
2021/07/25 05:38:09;;;;;;;7.55;6.57;;;20.80;99.90;;;;;;5115747;27;20190;-78
2021/07/25 05:40:36;;;;;;;7.22;5.90;;;20.80;99.90;;;;;;5118727;27;20254;-78
2021/07/25 05:43:03;;;;;;;7.10;6.40;;;20.90;99.90;;;;;;5130320;27;20220;-78
2021/07/25 05:45:29;;;;;;;6.18;5.57;;;21.10;99.90;;;;;;5130038;27;20201;-78
2021/07/25 05:47:56;;;;;;;6.35;5.75;;;21.20;99.90;;;;;;5122919;28;20246;-78
2021/07/25 05:50:24;;;;;;;6.40;5.80;;;21.40;99.90;;;;;;5114442;28;20262;-79
2021/07/25 05:52:53;;;;;;;7.45;6.75;;;21.70;99.90;;;;;;5122519;28;20249;-79
2021/07/25 05:55:21;;;;;;;8.73;7.93;;;21.80;99.90;;;;;;5115345;27;20205;-78
2021/07/25 05:57:47;;;;;;;6.07;5.47;;;22.00;99.90;;;;;;5114056;28;20197;-78
2021/07/25 06:00:15;;;;;;;6.97;6.30;;;22.20;99.90;;;;;;5119492;28;20553;-79
2021/07/25 06:02:52;;;;;;;6.03;5.53;;;22.30;99.90;;;;;;5113712;28;20478;-79
2021/07/25 06:05:19;;;;;;;6.22;5.68;;;22.40;99.90;;;;;;5112985;28;20442;-79
2021/07/25 06:07:47;;;;;;;6.27;5.67;;;22.60;99.90;;;;;;5115315;28;20193;-79
2021/07/25 06:10:14;;;;;;;6.60;6.00;;;22.70;99.90;;;;;;5130511;27;20450;-80
2021/07/25 06:12:41;;;;;;;6.17;5.67;;;22.80;99.90;;;;;;5112596;28;20434;-79
2021/07/25 06:15:09;;;;;;;6.80;5.53;;;22.90;99.90;;;;;;5112548;28;20447;-80
2021/07/25 06:17:36;;;;;;;6.93;6.33;;;23.00;99.90;;;;;;5112505;28;20443;-78
2021/07/25 06:20:02;;;;;;;5.70;5.20;;;23.10;99.90;;;;;;5112830;28;20443;-79
2021/07/25 06:22:37;;;;;;;5.47;4.97;;;23.10;99.90;;;;;;5112280;28;20486;-79
2021/07/25 06:25:07;;;;;;;6.50;5.97;;;23.20;99.90;;;;;;5117188;28;20475;-78
2021/07/25 06:27:34;;;;;;;5.53;5.07;;;23.20;99.90;;;;;;5127556;27;20442;-78
2021/07/25 06:30:00;;;;;;;5.70;5.10;;;23.10;99.90;;;;;;5129855;27;20438;-79
2021/07/25 06:32:27;;;;;;;5.70;5.20;;;23.10;99.90;;;;;;5134166;27;20442;-80
2021/07/25 06:34:54;;;;;;;5.60;5.10;;;23.00;99.90;;;;;;5137384;27;20442;-78
2021/07/25 06:37:20;;;;;;;6.90;6.30;;;22.90;99.90;;;;;;5137961;27;20446;-78
2021/07/25 06:39:47;;;;;;;6.93;6.27;;;22.90;99.90;;;;;;5128320;27;20790;-81
2021/07/25 06:42:15;;;;;;;9.27;6.53;;;22.80;99.90;;;;;;5125040;27;20483;-82
2021/07/25 06:44:42;;;;;;;6.57;5.90;;;22.70;99.90;;;;;;5116942;28;20435;-81
2021/07/25 06:47:08;;;;;;;6.47;5.87;;;22.70;99.90;;;;;;5117298;27;20435;-82
2021/07/25 06:49:35;;;;;;;6.03;5.53;;;22.60;99.90;;;;;;5126831;27;20451;-81
2021/07/25 06:52:05;;;;;;;5.10;4.70;;;22.50;99.90;;;;;;5117004;28;20443;-82
2021/07/25 06:54:32;;;;;;;5.90;5.40;;;22.50;99.90;;;;;;5128157;27;20446;-81
2021/07/25 06:56:58;;;;;;;6.57;5.97;;;22.40;99.90;;;;;;5137715;27;20518;-83
2021/07/25 06:59:26;;;;;;;6.03;5.43;;;22.40;99.90;;;;;;5136757;27;20864;-82
2021/07/25 07:01:53;;;;;;;5.77;5.23;;;22.30;99.90;;;;;;5135016;27;20897;-82
2021/07/25 07:04:20;;;;;;;5.90;5.40;;;22.30;99.90;;;;;;5137583;27;20499;-80
2021/07/25 07:06:46;;;;;;;7.30;6.60;;;22.20;99.90;;;;;;5136176;27;20494;-81
2021/07/25 07:09:13;;;;;;;5.78;5.20;;;22.20;99.90;;;;;;5135026;27;20470;-80
2021/07/25 07:11:39;;;;;;;5.93;5.32;;;22.10;99.90;;;;;;5136017;27;20230;-80
2021/07/25 07:14:08;;;;;;;6.37;5.30;;;22.10;99.90;;;;;;5143684;27;20219;-80
2021/07/25 07:16:36;;;;;;;5.50;5.00;;;22.10;99.90;;;;;;5157407;27;20445;-81
2021/07/25 07:19:02;;;;;;;9.57;5.20;;;22.00;99.90;;;;;;5156165;27;20264;-81
2021/07/25 07:21:29;;;;;;;6.10;5.35;;;22.00;99.90;;;;;;5115299;28;20244;-81
2021/07/25 07:23:56;;;;;;;5.60;5.03;;;22.00;99.90;;;;;;5115212;28;20278;-80
2021/07/25 07:26:23;;;;;;;6.30;5.70;;;22.00;99.90;;;;;;5115266;28;20309;-80
2021/07/25 07:28:50;;;;;;;6.18;5.57;;;22.00;99.90;;;;;;5115388;28;20205;-81
2021/07/25 07:31:17;;;;;;;6.15;5.55;;;22.00;99.90;;;;;;5133689;27;20250;-80
2021/07/25 07:33:45;;;;;;;5.25;4.82;;;22.00;99.90;;;;;;5135742;27;20200;-79
2021/07/25 07:36:11;;;;;;;6.28;5.78;;;22.00;99.90;;;;;;5136730;27;20193;-79
2021/07/25 07:38:38;;;;;;;6.13;5.55;;;22.00;99.90;;;;;;5132152;27;20201;-77
2021/07/25 07:41:05;;;;;;;5.85;5.30;;;22.00;99.90;;;;;;5133608;27;20282;-83
2021/07/25 07:43:31;;;;;;;6.70;6.00;;;22.00;99.90;;;;;;5129181;27;20213;-83
2021/07/25 07:45:59;;;;;;;5.80;5.22;;;22.00;99.90;;;;;;5117534;27;20193;-83
2021/07/25 07:48:25;;;;;;;6.68;5.95;;;22.00;99.90;;;;;;5115825;28;20289;-83
2021/07/25 07:50:54;;;;;;;7.20;5.30;;;22.00;99.90;;;;;;5118468;27;20261;-84
2021/07/25 07:53:20;;;;;;;5.35;4.85;;;21.90;99.90;;;;;;5120113;27;20663;-79
2021/07/25 07:55:47;;;;;;;5.63;5.13;;;22.00;99.90;;;;;;5132453;27;20228;-79
2021/07/25 07:58:14;;;;;;;5.35;4.85;;;21.90;99.90;;;;;;5134087;27;20194;-80
2021/07/25 08:00:41;;;;;;;5.10;4.68;;;22.00;99.90;;;;;;5121218;27;20201;-80
2021/07/25 08:03:08;;;;;;;5.97;5.40;;;22.00;99.90;;;;;;5116617;27;20255;-79
2021/07/25 08:05:34;;;;;;;5.30;4.90;;;22.10;99.90;;;;;;5133918;27;20197;-80
2021/07/25 08:08:03;;;;;;;5.50;5.00;;;22.10;99.90;;;;;;5130467;27;20256;-80
2021/07/25 08:10:30;;;;;;;5.15;4.75;;;22.20;99.90;;;;;;5131062;27;20193;-81
2021/07/25 08:12:56;;;;;;;5.45;4.93;;;22.20;99.90;;;;;;5115843;27;20247;-80
2021/07/25 08:15:23;;;;;;;5.25;4.85;;;22.40;99.90;;;;;;5116337;27;20205;-80
2021/07/25 08:17:49;;;;;;;6.07;4.73;;;22.40;99.90;;;;;;5117084;27;20190;-80
2021/07/25 08:20:16;;;;;;;5.28;4.57;;;22.50;99.90;;;;;;5135967;27;20498;-80
2021/07/25 08:22:43;;;;;;;8.03;4.33;;;22.60;99.90;;;;;;5132239;27;20213;-80
2021/07/25 08:25:11;;;;;;;4.90;4.50;;;22.60;99.90;;;;;;5119505;27;20504;-80
2021/07/25 08:27:38;;;;;;;5.07;4.67;;;22.80;99.90;;;;;;5126698;27;20442;-80
2021/07/25 08:30:06;;;;;;;5.17;4.67;;;22.90;99.90;;;;;;5115271;27;20443;-81
2021/07/25 08:32:32;;;;;;;4.70;4.30;;;23.00;99.90;;;;;;5118466;27;20430;-80
2021/07/25 08:34:59;;;;;;;5.27;4.77;;;23.10;99.90;;;;;;5118604;27;20446;-80
2021/07/25 08:37:26;;;;;;;4.93;4.53;;;23.10;99.90;;;;;;5132881;27;20932;-84
2021/07/25 08:39:53;;;;;;;4.87;4.47;;;23.20;99.90;;;;;;5128299;27;20446;-84
2021/07/25 08:42:24;;;;;;;5.13;4.53;;;23.20;99.90;;;;;;5116298;27;20446;-82
2021/07/25 08:44:52;;;;;;;4.63;4.20;;;23.30;99.90;;;;;;5124829;27;20437;-82
2021/07/25 08:47:25;;;;;;;4.97;4.40;;;23.30;99.90;;;;;;5114010;28;20450;-81
2021/07/25 08:49:54;;;;;;;4.30;4.00;;;23.30;99.90;;;;;;5134035;27;20437;-82
2021/07/25 08:52:23;;;;;;;4.90;4.40;;;23.30;99.90;;;;;;5132798;27;20920;-82
2021/07/25 08:54:50;;;;;;;4.40;4.00;;;23.40;99.90;;;;;;5131119;27;20521;-82
2021/07/25 08:57:19;;;;;;;4.33;3.93;;;23.50;99.90;;;;;;5119530;27;20446;-82
2021/07/25 08:59:49;;;;;;;5.17;4.67;;;23.50;99.90;;;;;;5120694;27;20443;-85
2021/07/25 09:02:19;;;;;;;5.60;4.10;;;23.70;99.90;;;;;;5121483;27;21008;-82
2021/07/25 09:04:47;;;;;;;4.20;3.90;;;23.80;99.90;;;;;;5129033;27;20777;-82
2021/07/25 09:07:14;;;;;;;3.93;3.47;;;24.00;99.90;;;;;;5129029;27;20965;-79
2021/07/25 09:09:43;;;;;;;3.80;3.50;;;24.00;99.90;;;;;;5126801;27;20438;-80
2021/07/25 09:12:11;;;;;;;3.53;2.93;;;24.10;99.90;;;;;;5128319;27;20526;-79
2021/07/25 09:14:42;;;;;;;4.00;3.70;;;24.20;99.90;;;;;;5121759;27;20933;-80
2021/07/25 09:17:10;;;;;;;3.40;3.10;;;24.30;99.90;;;;;;5135784;27;20466;-81
2021/07/25 09:20:11;;;;;;;7.70;3.30;;;24.50;99.90;;;;;;5122692;27;20499;-81
2021/07/25 09:22:39;;;;;;;4.00;3.70;;;24.50;99.90;;;;;;5121442;27;20462;-80
2021/07/25 09:25:08;;;;;;;4.67;4.17;;;24.50;99.90;;;;;;5114652;28;20445;-81
2021/07/25 09:27:34;;;;;;;3.30;3.00;;;24.60;99.90;;;;;;5130048;27;20446;-80
2021/07/25 09:30:17;;;;;;;4.70;3.90;;;24.60;99.90;;;;;;5123454;27;20909;-81
2021/07/25 09:32:45;;;;;;;3.27;2.90;;;24.60;99.90;;;;;;5123621;27;20462;-80
2021/07/25 09:35:25;;;;;;;4.17;3.77;;;24.80;99.90;;;;;;5121899;27;20449;-81
2021/07/25 09:37:53;;;;;;;4.27;3.67;;;24.80;99.90;;;;;;5125445;27;20446;-77
2021/07/25 09:40:27;;;;;;;3.60;3.30;;;24.80;99.90;;;;;;5115031;27;20435;-79
2021/07/25 09:43:09;;;;;;;7.60;3.80;;;24.80;99.90;;;;;;5123518;27;20478;-83
2021/07/25 09:45:54;;;;;;;2.87;2.67;;;24.80;99.90;;;;;;5132654;27;20466;-81
2021/07/25 09:48:24;;;;;;;3.70;3.40;;;24.90;99.90;;;;;;5115378;27;20970;-82
2021/07/25 09:50:53;;;;;;;3.20;2.90;;;24.90;99.90;;;;;;5128074;28;20447;-80
2021/07/25 09:53:22;;;;;;;4.40;4.07;;;24.90;99.90;;;;;;5132161;27;20459;-79
2021/07/25 09:55:49;;;;;;;3.87;3.43;;;25.00;99.90;;;;;;5131556;28;20450;-80
2021/07/25 09:58:16;;;;;;;3.70;3.30;;;25.00;99.90;;;;;;5132256;27;20449;-82
2021/07/25 10:00:44;;;;;;;4.17;3.80;;;25.00;99.90;;;;;;5127540;27;20447;-79
2021/07/25 10:03:25;;;;;;;4.23;3.40;;;25.00;99.90;;;;;;5125342;27;20474;-84
2021/07/25 10:05:52;;;;;;;4.47;3.90;;;25.00;99.90;;;;;;5134739;27;20442;-78
2021/07/25 10:08:23;;;;;;;4.30;2.83;;;25.00;99.90;;;;;;5121148;27;20588;-78
2021/07/25 10:10:51;;;;;;;3.50;3.20;;;25.00;99.90;;;;;;5120604;27;20427;-81
2021/07/25 10:13:19;;;;;;;5.83;3.20;;;25.00;99.90;;;;;;5129997;27;20443;-79
2021/07/25 10:15:55;;;;;;;3.90;3.40;;;25.00;99.90;;;;;;5118849;28;20443;-82
2021/07/25 10:18:24;;;;;;;3.87;2.80;;;25.00;99.90;;;;;;5127837;27;20455;-78
2021/07/25 10:20:55;;;;;;;3.80;3.50;;;25.10;99.90;;;;;;5136971;27;20474;-80
2021/07/25 10:23:26;;;;;;;4.23;3.43;;;25.10;99.90;;;;;;5133638;27;20462;-79
2021/07/25 10:25:55;;;;;;;4.47;3.73;;;25.10;99.90;;;;;;5130599;27;20834;-80
2021/07/25 10:28:22;;;;;;;3.80;3.37;;;25.00;99.90;;;;;;5132398;27;20457;-82
2021/07/25 10:30:50;;;;;;;4.33;2.90;;;25.00;99.90;;;;;;5136164;27;20449;-83
2021/07/25 10:33:18;;;;;;;4.37;4.00;;;25.00;99.90;;;;;;5131684;27;20446;-80
2021/07/25 10:35:46;;;;;;;4.50;3.60;;;25.00;99.90;;;;;;5136143;27;20450;-84
2021/07/25 10:38:14;;;;;;;3.90;3.57;;;25.10;99.90;;;;;;5135451;27;20469;-77
2021/07/25 10:40:40;;;;;;;4.23;2.90;;;25.10;99.90;;;;;;5125756;27;20454;-79
2021/07/25 10:43:07;;;;;;;3.73;3.13;;;25.10;99.90;;;;;;5129146;27;20542;-79
2021/07/25 10:45:35;;;;;;;4.10;3.70;;;25.10;99.90;;;;;;5137447;27;20445;-87
2021/07/25 10:48:13;;;;;;;3.30;3.00;;;25.10;99.90;;;;;;5125564;27;21004;-79
2021/07/25 10:50:39;;;;;;;3.57;3.27;;;25.10;99.90;;;;;;5136820;27;20536;-80
2021/07/25 10:53:07;;;;;;;3.90;3.10;;;25.10;99.90;;;;;;5126545;27;20460;-82
2021/07/25 10:55:52;;;;;;;3.40;3.10;;;25.10;99.90;;;;;;5131989;27;20438;-77
2021/07/25 10:58:21;;;;;;;3.57;3.10;;;25.10;99.90;;;;;;5128160;27;20757;-88
2021/07/25 11:00:53;;;;;;;3.23;2.90;;;25.10;99.90;;;;;;5136202;27;20465;-79
2021/07/25 11:03:42;;;;;;;3.87;2.87;;;25.10;99.90;;;;;;5123069;27;20466;-81
2021/07/25 11:06:19;;;;;;;3.50;3.17;;;25.10;99.90;;;;;;5127725;27;20465;-79
2021/07/25 11:08:50;;;;;;;3.37;3.07;;;25.00;99.90;;;;;;5123565;27;20443;-79
2021/07/25 11:11:55;;;;;;;3.80;3.50;;;25.00;99.90;;;;;;5122489;27;20452;-79
2021/07/25 11:15:05;;;;;;;3.50;3.20;;;24.90;99.90;;;;;;5136673;27;20418;-79
2021/07/25 11:17:52;;;;;;;4.03;2.83;;;24.90;99.90;;;;;;5131121;27;20442;-80
2021/07/25 11:20:32;;;;;;;3.23;2.80;;;24.80;99.90;;;;;;5122553;27;20446;-81
2021/07/25 11:22:59;;;;;;;4.47;3.70;;;24.80;99.90;;;;;;5136080;27;20441;-80
2021/07/25 11:25:34;;;;;;;2.83;2.53;;;24.90;99.90;;;;;;5136763;27;20430;-78
2021/07/25 11:28:02;;;;;;;3.57;3.20;;;24.90;99.90;;;;;;5132290;27;20434;-78
2021/07/25 11:31:05;;;;;;;3.20;2.90;;;25.00;99.90;;;;;;5128274;27;20473;-80
2021/07/25 11:33:51;;;;;;;4.60;2.97;;;24.90;99.90;;;;;;5118374;27;20434;-80
2021/07/25 11:36:20;;;;;;;3.73;2.73;;;25.00;99.90;;;;;;5116494;28;20457;-80
2021/07/25 11:38:55;;;;;;;3.63;3.33;;;25.00;99.90;;;;;;5123822;27;20452;-81
2021/07/25 11:41:25;;;;;;;3.83;3.40;;;25.00;99.90;;;;;;5136926;27;20473;-81
2021/07/25 11:43:55;;;;;;;4.27;3.50;;;25.00;99.90;;;;;;5134954;27;20561;-80
2021/07/25 11:46:26;;;;;;;3.13;2.83;;;25.10;99.90;;;;;;5135587;27;20450;-81
2021/07/25 11:49:04;;;;;;;3.20;2.80;;;25.10;99.90;;;;;;5131756;27;20443;-78
2021/07/25 11:51:31;;;;;;;3.07;2.77;;;25.10;99.90;;;;;;5120309;27;20454;-80
2021/07/25 11:53:58;;;;;;;3.30;3.00;;;25.10;99.90;;;;;;5121065;27;20439;-82
2021/07/25 11:56:26;;;;;;;3.37;3.07;;;25.10;99.90;;;;;;5116679;28;20443;-83
2021/07/25 11:59:00;;;;;;;3.63;3.30;;;25.10;99.90;;;;;;5116752;27;20809;-79
2021/07/25 12:01:27;;;;;;;3.07;2.77;;;25.10;99.90;;;;;;5116440;27;20511;-80
2021/07/25 12:03:54;;;;;;;3.27;2.90;;;25.10;99.90;;;;;;5129341;27;20470;-79
2021/07/25 12:06:21;;;;;;;2.70;2.50;;;25.10;99.90;;;;;;5128948;27;20843;-92
2021/07/25 12:09:02;;;;;;;2.73;2.53;;;25.10;99.90;;;;;;5116631;27;20451;-79
2021/07/25 12:11:30;;;;;;;2.97;2.33;;;25.10;99.90;;;;;;5127384;27;20434;-79
2021/07/25 12:13:57;;;;;;;2.77;2.57;;;25.10;99.90;;;;;;5130543;27;20446;-81
2021/07/25 12:16:25;;;;;;;2.97;2.73;;;25.10;99.90;;;;;;5134165;27;20939;-82
2021/07/25 12:18:52;;;;;;;3.30;2.70;;;25.10;99.90;;;;;;5128864;27;20447;-84
2021/07/25 12:21:30;;;;;;;2.73;2.30;;;25.10;99.90;;;;;;5132627;27;20478;-79
2021/07/25 12:23:57;;;;;;;3.17;2.87;;;25.10;99.90;;;;;;5135361;27;20478;-82
2021/07/25 12:29:36;;;;;;;3.17;2.83;;;25.20;99.90;;;;;;5090755;28;20530;-78
2021/07/25 12:32:35;;;;;;;2.73;2.30;;;25.10;99.90;;;;;;5092478;28;20954;-78
2021/07/25 12:35:21;;;;;;;2.27;2.07;;;25.20;99.90;;;;;;5081141;28;20453;-78
2021/07/25 12:37:50;;;;;;;4.30;2.60;;;25.20;99.90;;;;;;5074641;28;20933;-78
2021/07/25 12:40:18;;;;;;;2.37;2.17;;;25.20;99.90;;;;;;5089269;28;20447;-78
2021/07/25 12:42:48;;;;;;;2.60;1.83;;;25.20;99.90;;;;;;5078283;28;20445;-78
2021/07/25 12:45:37;;;;;;;4.47;3.93;;;25.20;99.90;;;;;;5070927;28;20442;-79
2021/07/25 12:48:26;;;;;;;3.07;2.30;;;25.20;99.90;;;;;;5054655;28;20470;-79
2021/07/25 12:51:03;;;;;;;2.83;2.63;;;25.20;99.90;;;;;;5057714;28;20449;-78
2021/07/25 12:53:41;;;;;;;4.07;2.90;;;25.30;99.90;;;;;;5073232;28;20445;-79
2021/07/25 12:56:09;;;;;;;2.90;2.70;;;25.30;99.90;;;;;;5073381;28;20437;-79
2021/07/25 12:58:41;;;;;;;3.33;2.87;;;25.30;99.90;;;;;;5079508;28;20441;-78
2021/07/25 13:01:20;;;;;;;3.50;2.10;;;25.30;99.90;;;;;;5073187;28;20455;-79